sensor_id;sensor_type;location;lat;lon;timestamp;temperature;humidity
54264;DHT22;40178;53.042;6.406;2023-08-17T00:01:23;15.40;99.90
54264;DHT22;40178;53.042;6.406;2023-08-17T00:03:49;15.40;99.90
54264;DHT22;40178;53.042;6.406;2023-08-17T00:06:15;15.50;99.90
54264;DHT22;40178;53.042;6.406;2023-08-17T00:08:41;15.40;99.90
54264;DHT22;40178;53.042;6.406;2023-08-17T00:11:07;15.40;99.90
54264;DHT22;40178;53.042;6.406;2023-08-17T00:13:33;15.50;99.90
54264;DHT22;40178;53.042;6.406;2023-08-17T00:15:58;15.50;99.90
54264;DHT22;40178;53.042;6.406;2023-08-17T00:18:24;15.50;99.90
54264;DHT22;40178;53.042;6.406;2023-08-17T00:20:50;15.40;99.90
54264;DHT22;40178;53.042;6.406;2023-08-17T00:23:15;15.60;99.90
54264;DHT22;40178;53.042;6.406;2023-08-17T00:25:41;15.60;99.90
54264;DHT22;40178;53.042;6.406;2023-08-17T00:28:06;15.60;99.90
54264;DHT22;40178;53.042;6.406;2023-08-17T00:30:32;15.70;99.90
54264;DHT22;40178;53.042;6.406;2023-08-17T00:33:04;15.60;99.90
54264;DHT22;40178;53.042;6.406;2023-08-17T00:35:30;15.60;99.90
54264;DHT22;40178;53.042;6.406;2023-08-17T00:37:55;15.60;99.90
54264;DHT22;40178;53.042;6.406;2023-08-17T00:40:21;15.60;99.90
54264;DHT22;40178;53.042;6.406;2023-08-17T00:42:47;15.60;99.90
54264;DHT22;40178;53.042;6.406;2023-08-17T00:45:12;15.60;99.90
54264;DHT22;40178;53.042;6.406;2023-08-17T00:47:38;15.50;99.90
54264;DHT22;40178;53.042;6.406;2023-08-17T00:50:04;15.50;99.90
54264;DHT22;40178;53.042;6.406;2023-08-17T00:52:31;15.50;99.90
54264;DHT22;40178;53.042;6.406;2023-08-17T00:54:58;15.50;99.90
54264;DHT22;40178;53.042;6.406;2023-08-17T00:57:24;15.50;99.90
54264;DHT22;40178;53.042;6.406;2023-08-17T00:59:50;15.40;99.90
54264;DHT22;40178;53.042;6.406;2023-08-17T01:02:17;15.40;99.90
54264;DHT22;40178;53.042;6.406;2023-08-17T01:04:43;15.40;99.90
54264;DHT22;40178;53.042;6.406;2023-08-17T01:07:08;15.30;99.90
54264;DHT22;40178;53.042;6.406;2023-08-17T01:09:34;15.20;99.90
54264;DHT22;40178;53.042;6.406;2023-08-17T01:12:50;15.20;99.90
54264;DHT22;40178;53.042;6.406;2023-08-17T01:15:07;15.30;99.90
54264;DHT22;40178;53.042;6.406;2023-08-17T01:17:40;15.20;99.90
54264;DHT22;40178;53.042;6.406;2023-08-17T01:20:08;15.20;99.90
54264;DHT22;40178;53.042;6.406;2023-08-17T01:22:37;15.10;99.90
54264;DHT22;40178;53.042;6.406;2023-08-17T01:25:06;15.00;99.90
54264;DHT22;40178;53.042;6.406;2023-08-17T01:27:40;15.00;99.90
54264;DHT22;40178;53.042;6.406;2023-08-17T01:30:07;15.10;99.90
54264;DHT22;40178;53.042;6.406;2023-08-17T01:32:47;15.00;99.90
54264;DHT22;40178;53.042;6.406;2023-08-17T01:35:30;15.00;99.90
54264;DHT22;40178;53.042;6.406;2023-08-17T01:38:03;15.00;99.90
54264;DHT22;40178;53.042;6.406;2023-08-17T01:40:32;15.00;99.90
54264;DHT22;40178;53.042;6.406;2023-08-17T01:42:58;14.90;99.90
54264;DHT22;40178;53.042;6.406;2023-08-17T01:45:25;15.00;99.90
54264;DHT22;40178;53.042;6.406;2023-08-17T01:47:50;14.90;99.90
54264;DHT22;40178;53.042;6.406;2023-08-17T01:50:16;14.90;99.90
54264;DHT22;40178;53.042;6.406;2023-08-17T01:52:42;14.80;99.90
54264;DHT22;40178;53.042;6.406;2023-08-17T01:55:08;14.80;99.90
54264;DHT22;40178;53.042;6.406;2023-08-17T01:57:34;14.80;99.90
54264;DHT22;40178;53.042;6.406;2023-08-17T02:00:01;14.70;99.90
54264;DHT22;40178;53.042;6.406;2023-08-17T02:02:26;14.70;99.90
54264;DHT22;40178;53.042;6.406;2023-08-17T02:04:52;14.70;99.90
54264;DHT22;40178;53.042;6.406;2023-08-17T02:07:18;14.70;99.90
54264;DHT22;40178;53.042;6.406;2023-08-17T02:09:43;14.60;99.90
54264;DHT22;40178;53.042;6.406;2023-08-17T02:12:09;14.70;99.90
54264;DHT22;40178;53.042;6.406;2023-08-17T02:14:34;14.60;99.90
54264;DHT22;40178;53.042;6.406;2023-08-17T02:17:00;14.50;99.90
54264;DHT22;40178;53.042;6.406;2023-08-17T02:19:26;14.50;99.90
54264;DHT22;40178;53.042;6.406;2023-08-17T02:21:51;14.50;99.90
54264;DHT22;40178;53.042;6.406;2023-08-17T02:24:17;14.50;99.90
54264;DHT22;40178;53.042;6.406;2023-08-17T02:26:42;14.50;99.90
54264;DHT22;40178;53.042;6.406;2023-08-17T02:29:08;14.50;99.90
54264;DHT22;40178;53.042;6.406;2023-08-17T02:31:34;14.50;99.90
54264;DHT22;40178;53.042;6.406;2023-08-17T02:33:59;14.40;99.90
54264;DHT22;40178;53.042;6.406;2023-08-17T02:36:31;14.50;99.90
54264;DHT22;40178;53.042;6.406;2023-08-17T02:38:59;14.50;99.90
54264;DHT22;40178;53.042;6.406;2023-08-17T02:41:25;14.60;99.90
54264;DHT22;40178;53.042;6.406;2023-08-17T02:43:50;14.60;99.90
54264;DHT22;40178;53.042;6.406;2023-08-17T02:46:16;14.60;99.90
54264;DHT22;40178;53.042;6.406;2023-08-17T02:48:42;14.60;99.90
54264;DHT22;40178;53.042;6.406;2023-08-17T02:51:07;14.60;99.90
54264;DHT22;40178;53.042;6.406;2023-08-17T02:53:33;14.60;99.90
54264;DHT22;40178;53.042;6.406;2023-08-17T02:55:58;14.70;99.90
54264;DHT22;40178;53.042;6.406;2023-08-17T02:58:24;14.70;99.90
54264;DHT22;40178;53.042;6.406;2023-08-17T03:00:53;14.60;99.90
54264;DHT22;40178;53.042;6.406;2023-08-17T03:03:19;14.60;99.90
54264;DHT22;40178;53.042;6.406;2023-08-17T03:05:45;14.60;99.90
54264;DHT22;40178;53.042;6.406;2023-08-17T03:08:10;14.60;99.90
54264;DHT22;40178;53.042;6.406;2023-08-17T03:10:37;14.50;99.90
54264;DHT22;40178;53.042;6.406;2023-08-17T03:13:03;14.60;99.90
54264;DHT22;40178;53.042;6.406;2023-08-17T03:15:28;14.50;99.90
54264;DHT22;40178;53.042;6.406;2023-08-17T03:17:54;14.50;99.90
54264;DHT22;40178;53.042;6.406;2023-08-17T03:20:20;14.40;99.90
54264;DHT22;40178;53.042;6.406;2023-08-17T03:22:45;14.50;99.90
54264;DHT22;40178;53.042;6.406;2023-08-17T03:25:11;14.40;99.90
54264;DHT22;40178;53.042;6.406;2023-08-17T03:27:37;14.40;99.90
54264;DHT22;40178;53.042;6.406;2023-08-17T03:30:04;14.40;99.90
54264;DHT22;40178;53.042;6.406;2023-08-17T03:32:29;14.40;99.90
54264;DHT22;40178;53.042;6.406;2023-08-17T03:34:55;14.40;99.90
54264;DHT22;40178;53.042;6.406;2023-08-17T03:37:21;14.40;99.90
54264;DHT22;40178;53.042;6.406;2023-08-17T03:39:46;14.40;99.90
54264;DHT22;40178;53.042;6.406;2023-08-17T03:42:12;14.40;99.90
54264;DHT22;40178;53.042;6.406;2023-08-17T03:44:38;14.30;99.90
54264;DHT22;40178;53.042;6.406;2023-08-17T03:47:03;14.40;99.90
54264;DHT22;40178;53.042;6.406;2023-08-17T03:49:29;14.30;99.90
54264;DHT22;40178;53.042;6.406;2023-08-17T03:51:55;14.40;99.90
54264;DHT22;40178;53.042;6.406;2023-08-17T03:54:20;14.30;99.90
54264;DHT22;40178;53.042;6.406;2023-08-17T03:56:46;14.30;99.90
54264;DHT22;40178;53.042;6.406;2023-08-17T03:59:11;14.30;99.90
54264;DHT22;40178;53.042;6.406;2023-08-17T04:01:37;14.30;99.90
54264;DHT22;40178;53.042;6.406;2023-08-17T04:04:03;14.30;99.90
54264;DHT22;40178;53.042;6.406;2023-08-17T04:06:28;14.30;99.90
54264;DHT22;40178;53.042;6.406;2023-08-17T04:08:54;14.30;99.90
54264;DHT22;40178;53.042;6.406;2023-08-17T04:11:20;14.30;99.90
54264;DHT22;40178;53.042;6.406;2023-08-17T04:13:45;14.20;99.90
54264;DHT22;40178;53.042;6.406;2023-08-17T04:16:11;14.20;99.90
54264;DHT22;40178;53.042;6.406;2023-08-17T04:18:36;14.30;99.90
54264;DHT22;40178;53.042;6.406;2023-08-17T04:21:02;14.20;99.90
54264;DHT22;40178;53.042;6.406;2023-08-17T04:23:28;14.20;99.90
54264;DHT22;40178;53.042;6.406;2023-08-17T04:25:54;14.20;99.90
54264;DHT22;40178;53.042;6.406;2023-08-17T04:28:20;14.20;99.90
54264;DHT22;40178;53.042;6.406;2023-08-17T04:30:46;14.20;99.90
54264;DHT22;40178;53.042;6.406;2023-08-17T04:33:11;14.20;99.90
54264;DHT22;40178;53.042;6.406;2023-08-17T04:35:38;14.20;99.90
54264;DHT22;40178;53.042;6.406;2023-08-17T04:38:04;14.10;99.90
54264;DHT22;40178;53.042;6.406;2023-08-17T04:40:38;14.20;99.90
54264;DHT22;40178;53.042;6.406;2023-08-17T04:43:04;14.20;99.90
54264;DHT22;40178;53.042;6.406;2023-08-17T04:45:29;14.20;99.90
54264;DHT22;40178;53.042;6.406;2023-08-17T04:47:55;14.30;99.90
54264;DHT22;40178;53.042;6.406;2023-08-17T04:50:21;14.20;99.90
54264;DHT22;40178;53.042;6.406;2023-08-17T04:52:46;14.30;99.90
54264;DHT22;40178;53.042;6.406;2023-08-17T04:55:13;14.30;99.90
54264;DHT22;40178;53.042;6.406;2023-08-17T04:57:39;14.30;99.90
54264;DHT22;40178;53.042;6.406;2023-08-17T05:00:05;14.30;99.90
54264;DHT22;40178;53.042;6.406;2023-08-17T05:02:35;14.30;99.90
54264;DHT22;40178;53.042;6.406;2023-08-17T05:05:03;14.30;99.90
54264;DHT22;40178;53.042;6.406;2023-08-17T05:07:29;14.40;99.90
54264;DHT22;40178;53.042;6.406;2023-08-17T05:09:55;14.50;99.90
54264;DHT22;40178;53.042;6.406;2023-08-17T05:12:20;14.40;99.90
54264;DHT22;40178;53.042;6.406;2023-08-17T05:14:46;14.50;99.90
54264;DHT22;40178;53.042;6.406;2023-08-17T05:17:11;14.60;99.90
54264;DHT22;40178;53.042;6.406;2023-08-17T05:19:37;14.70;99.90
54264;DHT22;40178;53.042;6.406;2023-08-17T05:22:05;14.80;99.90
54264;DHT22;40178;53.042;6.406;2023-08-17T05:24:31;14.80;99.90
54264;DHT22;40178;53.042;6.406;2023-08-17T05:26:57;14.90;99.90
54264;DHT22;40178;53.042;6.406;2023-08-17T05:29:23;15.00;99.90
54264;DHT22;40178;53.042;6.406;2023-08-17T05:31:48;15.10;99.90
54264;DHT22;40178;53.042;6.406;2023-08-17T05:34:14;15.20;99.90
54264;DHT22;40178;53.042;6.406;2023-08-17T05:36:40;15.20;99.90
54264;DHT22;40178;53.042;6.406;2023-08-17T05:39:06;15.20;99.90
54264;DHT22;40178;53.042;6.406;2023-08-17T05:41:32;15.30;99.90
54264;DHT22;40178;53.042;6.406;2023-08-17T05:43:58;15.30;99.90
54264;DHT22;40178;53.042;6.406;2023-08-17T05:46:23;15.40;99.90
54264;DHT22;40178;53.042;6.406;2023-08-17T05:48:49;15.50;99.90
54264;DHT22;40178;53.042;6.406;2023-08-17T05:51:15;15.60;99.90
54264;DHT22;40178;53.042;6.406;2023-08-17T05:53:40;15.70;99.90
54264;DHT22;40178;53.042;6.406;2023-08-17T05:56:07;15.80;99.90
54264;DHT22;40178;53.042;6.406;2023-08-17T05:58:32;15.80;99.90
54264;DHT22;40178;53.042;6.406;2023-08-17T06:01:08;15.90;99.90
54264;DHT22;40178;53.042;6.406;2023-08-17T06:03:35;16.00;99.90
54264;DHT22;40178;53.042;6.406;2023-08-17T06:06:01;16.10;99.90
54264;DHT22;40178;53.042;6.406;2023-08-17T06:08:27;16.10;99.90
54264;DHT22;40178;53.042;6.406;2023-08-17T06:10:52;16.10;99.90
54264;DHT22;40178;53.042;6.406;2023-08-17T06:13:18;16.20;99.90
54264;DHT22;40178;53.042;6.406;2023-08-17T06:15:44;16.20;99.90
54264;DHT22;40178;53.042;6.406;2023-08-17T06:18:10;16.20;99.90
54264;DHT22;40178;53.042;6.406;2023-08-17T06:20:35;16.40;99.90
54264;DHT22;40178;53.042;6.406;2023-08-17T06:23:01;16.30;99.90
54264;DHT22;40178;53.042;6.406;2023-08-17T06:25:27;16.30;99.90
54264;DHT22;40178;53.042;6.406;2023-08-17T06:27:52;16.30;99.90
54264;DHT22;40178;53.042;6.406;2023-08-17T06:30:18;16.30;99.90
54264;DHT22;40178;53.042;6.406;2023-08-17T06:32:43;16.30;99.90
54264;DHT22;40178;53.042;6.406;2023-08-17T06:35:09;16.20;99.90
54264;DHT22;40178;53.042;6.406;2023-08-17T06:37:35;16.20;99.90
54264;DHT22;40178;53.042;6.406;2023-08-17T06:40:05;16.20;99.90
54264;DHT22;40178;53.042;6.406;2023-08-17T06:42:31;16.20;99.90
54264;DHT22;40178;53.042;6.406;2023-08-17T06:44:57;16.20;99.90
54264;DHT22;40178;53.042;6.406;2023-08-17T06:47:23;16.20;99.90
54264;DHT22;40178;53.042;6.406;2023-08-17T06:49:49;16.30;99.90
54264;DHT22;40178;53.042;6.406;2023-08-17T06:52:14;16.20;99.90
54264;DHT22;40178;53.042;6.406;2023-08-17T06:54:40;16.40;99.90
54264;DHT22;40178;53.042;6.406;2023-08-17T06:57:06;16.40;99.90
54264;DHT22;40178;53.042;6.406;2023-08-17T06:59:31;16.40;99.90
54264;DHT22;40178;53.042;6.406;2023-08-17T07:01:59;16.50;99.90
54264;DHT22;40178;53.042;6.406;2023-08-17T07:04:25;16.60;99.90
54264;DHT22;40178;53.042;6.406;2023-08-17T07:06:50;16.60;99.90
54264;DHT22;40178;53.042;6.406;2023-08-17T07:09:16;16.80;99.90
54264;DHT22;40178;53.042;6.406;2023-08-17T07:11:42;16.70;99.90
54264;DHT22;40178;53.042;6.406;2023-08-17T07:14:08;16.80;99.90
54264;DHT22;40178;53.042;6.406;2023-08-17T07:16:33;16.80;99.90
54264;DHT22;40178;53.042;6.406;2023-08-17T07:18:59;16.80;99.90
54264;DHT22;40178;53.042;6.406;2023-08-17T07:21:25;16.90;99.90
54264;DHT22;40178;53.042;6.406;2023-08-17T07:23:53;16.60;99.90
54264;DHT22;40178;53.042;6.406;2023-08-17T07:26:19;16.80;99.90
54264;DHT22;40178;53.042;6.406;2023-08-17T07:28:46;16.90;99.90
54264;DHT22;40178;53.042;6.406;2023-08-17T07:31:12;16.90;99.90
54264;DHT22;40178;53.042;6.406;2023-08-17T07:33:38;17.10;99.90
54264;DHT22;40178;53.042;6.406;2023-08-17T07:36:03;17.20;99.90
54264;DHT22;40178;53.042;6.406;2023-08-17T07:38:30;17.20;99.90
54264;DHT22;40178;53.042;6.406;2023-08-17T07:40:55;17.30;99.90
54264;DHT22;40178;53.042;6.406;2023-08-17T07:43:21;17.40;99.90
54264;DHT22;40178;53.042;6.406;2023-08-17T07:45:53;17.50;99.50
54264;DHT22;40178;53.042;6.406;2023-08-17T07:48:19;17.60;99.90
54264;DHT22;40178;53.042;6.406;2023-08-17T07:50:51;17.70;97.40
54264;DHT22;40178;53.042;6.406;2023-08-17T07:53:20;17.80;99.60
54264;DHT22;40178;53.042;6.406;2023-08-17T07:55:46;17.80;93.70
54264;DHT22;40178;53.042;6.406;2023-08-17T07:58:12;17.70;93.50
54264;DHT22;40178;53.042;6.406;2023-08-17T08:00:38;18.00;97.70
54264;DHT22;40178;53.042;6.406;2023-08-17T08:03:03;17.90;97.40
54264;DHT22;40178;53.042;6.406;2023-08-17T08:05:29;18.00;96.20
54264;DHT22;40178;53.042;6.406;2023-08-17T08:07:55;18.10;94.30
54264;DHT22;40178;53.042;6.406;2023-08-17T08:10:20;18.20;89.40
54264;DHT22;40178;53.042;6.406;2023-08-17T08:12:46;18.20;92.40
54264;DHT22;40178;53.042;6.406;2023-08-17T08:15:12;18.30;90.40
54264;DHT22;40178;53.042;6.406;2023-08-17T08:17:37;18.40;86.30
54264;DHT22;40178;53.042;6.406;2023-08-17T08:20:04;18.50;85.90
54264;DHT22;40178;53.042;6.406;2023-08-17T08:22:29;18.60;84.90
54264;DHT22;40178;53.042;6.406;2023-08-17T08:24:56;18.60;88.80
54264;DHT22;40178;53.042;6.406;2023-08-17T08:27:22;18.60;87.80
54264;DHT22;40178;53.042;6.406;2023-08-17T08:29:47;18.60;82.30
54264;DHT22;40178;53.042;6.406;2023-08-17T08:32:13;18.50;74.80
54264;DHT22;40178;53.042;6.406;2023-08-17T08:34:38;18.80;83.20
54264;DHT22;40178;53.042;6.406;2023-08-17T08:37:04;18.90;87.00
54264;DHT22;40178;53.042;6.406;2023-08-17T08:39:30;19.00;73.30
54264;DHT22;40178;53.042;6.406;2023-08-17T08:41:55;19.00;65.70
54264;DHT22;40178;53.042;6.406;2023-08-17T08:44:22;19.10;73.30
54264;DHT22;40178;53.042;6.406;2023-08-17T08:46:48;19.20;77.10
54264;DHT22;40178;53.042;6.406;2023-08-17T08:49:20;19.30;75.30
54264;DHT22;40178;53.042;6.406;2023-08-17T08:51:50;19.30;77.70
54264;DHT22;40178;53.042;6.406;2023-08-17T08:54:21;19.30;60.80
54264;DHT22;40178;53.042;6.406;2023-08-17T08:56:52;19.40;66.50
54264;DHT22;40178;53.042;6.406;2023-08-17T08:59:20;19.30;51.60
54264;DHT22;40178;53.042;6.406;2023-08-17T09:01:47;19.50;59.20
54264;DHT22;40178;53.042;6.406;2023-08-17T09:04:13;19.60;67.60
54264;DHT22;40178;53.042;6.406;2023-08-17T09:06:39;19.60;57.40
54264;DHT22;40178;53.042;6.406;2023-08-17T09:09:07;19.60;46.70
54264;DHT22;40178;53.042;6.406;2023-08-17T09:11:33;19.60;59.20
54264;DHT22;40178;53.042;6.406;2023-08-17T09:13:58;19.70;56.60
54264;DHT22;40178;53.042;6.406;2023-08-17T09:16:24;19.70;47.60
54264;DHT22;40178;53.042;6.406;2023-08-17T09:18:52;19.70;41.90
54264;DHT22;40178;53.042;6.406;2023-08-17T09:21:25;19.80;56.60
54264;DHT22;40178;53.042;6.406;2023-08-17T09:23:54;19.80;48.60
54264;DHT22;40178;53.042;6.406;2023-08-17T09:26:21;19.80;43.20
54264;DHT22;40178;53.042;6.406;2023-08-17T09:28:50;19.90;44.70
54264;DHT22;40178;53.042;6.406;2023-08-17T09:31:30;19.80;47.40
54264;DHT22;40178;53.042;6.406;2023-08-17T09:33:56;19.80;50.20
54264;DHT22;40178;53.042;6.406;2023-08-17T09:36:22;19.80;53.30
54264;DHT22;40178;53.042;6.406;2023-08-17T09:38:48;19.90;49.90
54264;DHT22;40178;53.042;6.406;2023-08-17T09:41:18;19.70;32.00
54264;DHT22;40178;53.042;6.406;2023-08-17T09:43:45;19.70;42.20
54264;DHT22;40178;53.042;6.406;2023-08-17T09:46:11;19.60;36.40
54264;DHT22;40178;53.042;6.406;2023-08-17T09:48:37;19.50;36.30
54264;DHT22;40178;53.042;6.406;2023-08-17T09:51:03;19.50;39.00
54264;DHT22;40178;53.042;6.406;2023-08-17T09:53:34;19.70;45.30
54264;DHT22;40178;53.042;6.406;2023-08-17T09:56:01;19.80;41.70
54264;DHT22;40178;53.042;6.406;2023-08-17T09:58:26;19.70;40.60
54264;DHT22;40178;53.042;6.406;2023-08-17T10:00:52;19.70;37.20
54264;DHT22;40178;53.042;6.406;2023-08-17T10:03:19;19.70;43.60
54264;DHT22;40178;53.042;6.406;2023-08-17T10:05:48;19.80;49.40
54264;DHT22;40178;53.042;6.406;2023-08-17T10:08:19;19.70;28.60
54264;DHT22;40178;53.042;6.406;2023-08-17T10:10:46;19.70;31.70
54264;DHT22;40178;53.042;6.406;2023-08-17T10:13:31;19.80;46.80
54264;DHT22;40178;53.042;6.406;2023-08-17T10:21:39;20.10;44.00
54264;DHT22;40178;53.042;6.406;2023-08-17T10:24:07;20.20;42.80
54264;DHT22;40178;53.042;6.406;2023-08-17T10:26:33;20.20;53.20
54264;DHT22;40178;53.042;6.406;2023-08-17T10:28:59;20.40;52.30
54264;DHT22;40178;53.042;6.406;2023-08-17T10:31:27;20.40;36.30
54264;DHT22;40178;53.042;6.406;2023-08-17T10:33:53;20.50;54.70
54264;DHT22;40178;53.042;6.406;2023-08-17T10:36:19;20.60;47.90
54264;DHT22;40178;53.042;6.406;2023-08-17T10:38:46;20.70;44.10
54264;DHT22;40178;53.042;6.406;2023-08-17T10:43:57;20.70;37.90
54264;DHT22;40178;53.042;6.406;2023-08-17T10:46:37;20.80;46.80
54264;DHT22;40178;53.042;6.406;2023-08-17T10:49:04;20.90;35.50
54264;DHT22;40178;53.042;6.406;2023-08-17T10:51:33;21.00;17.00
54264;DHT22;40178;53.042;6.406;2023-08-17T10:54:02;21.10;43.10
54264;DHT22;40178;53.042;6.406;2023-08-17T10:56:30;21.10;34.00
54264;DHT22;40178;53.042;6.406;2023-08-17T10:59:02;21.10;25.70
54264;DHT22;40178;53.042;6.406;2023-08-17T11:01:36;21.20;33.00
54264;DHT22;40178;53.042;6.406;2023-08-17T11:04:09;21.40;30.30
54264;DHT22;40178;53.042;6.406;2023-08-17T11:06:36;21.50;23.40
54264;DHT22;40178;53.042;6.406;2023-08-17T11:09:06;21.50;22.40
54264;DHT22;40178;53.042;6.406;2023-08-17T11:11:32;21.70;25.90
54264;DHT22;40178;53.042;6.406;2023-08-17T11:13:58;21.40;19.20
54264;DHT22;40178;53.042;6.406;2023-08-17T11:16:24;21.40;27.00
54264;DHT22;40178;53.042;6.406;2023-08-17T11:18:50;21.20;17.40
54264;DHT22;40178;53.042;6.406;2023-08-17T11:21:16;21.10;29.80
54264;DHT22;40178;53.042;6.406;2023-08-17T11:23:42;21.20;32.00
54264;DHT22;40178;53.042;6.406;2023-08-17T11:26:08;21.20;30.90
54264;DHT22;40178;53.042;6.406;2023-08-17T11:28:35;21.10;21.80
54264;DHT22;40178;53.042;6.406;2023-08-17T11:31:08;21.40;38.70
54264;DHT22;40178;53.042;6.406;2023-08-17T11:33:36;21.50;29.50
54264;DHT22;40178;53.042;6.406;2023-08-17T11:36:07;21.50;23.80
54264;DHT22;40178;53.042;6.406;2023-08-17T11:38:34;21.40;31.50
54264;DHT22;40178;53.042;6.406;2023-08-17T11:41:02;21.30;18.90
54264;DHT22;40178;53.042;6.406;2023-08-17T11:43:28;21.40;32.90
54264;DHT22;40178;53.042;6.406;2023-08-17T11:45:55;21.30;18.30
54264;DHT22;40178;53.042;6.406;2023-08-17T11:48:23;21.20;17.00
54264;DHT22;40178;53.042;6.406;2023-08-17T11:50:49;21.30;16.00
54264;DHT22;40178;53.042;6.406;2023-08-17T11:53:14;21.50;28.60
54264;DHT22;40178;53.042;6.406;2023-08-17T11:55:41;21.50;15.60
54264;DHT22;40178;53.042;6.406;2023-08-17T11:58:06;21.60;28.80
54264;DHT22;40178;53.042;6.406;2023-08-17T12:00:39;21.60;16.50
54264;DHT22;40178;53.042;6.406;2023-08-17T12:03:05;21.70;23.20
54264;DHT22;40178;53.042;6.406;2023-08-17T12:05:34;21.80;21.00
54264;DHT22;40178;53.042;6.406;2023-08-17T12:08:00;21.70;19.00
54264;DHT22;40178;53.042;6.406;2023-08-17T12:10:31;21.60;19.00
54264;DHT22;40178;53.042;6.406;2023-08-17T12:13:00;21.50;14.30
54264;DHT22;40178;53.042;6.406;2023-08-17T12:15:34;21.50;29.10
54264;DHT22;40178;53.042;6.406;2023-08-17T12:18:02;21.50;30.70
54264;DHT22;40178;53.042;6.406;2023-08-17T12:20:28;21.30;30.20
54264;DHT22;40178;53.042;6.406;2023-08-17T12:22:53;21.30;31.60
54264;DHT22;40178;53.042;6.406;2023-08-17T12:25:23;21.40;38.40
54264;DHT22;40178;53.042;6.406;2023-08-17T12:27:49;21.30;36.70
54264;DHT22;40178;53.042;6.406;2023-08-17T12:30:25;21.50;44.60
54264;DHT22;40178;53.042;6.406;2023-08-17T12:32:51;21.50;41.30
54264;DHT22;40178;53.042;6.406;2023-08-17T12:35:17;21.50;39.80
54264;DHT22;40178;53.042;6.406;2023-08-17T12:37:43;21.60;36.10
54264;DHT22;40178;53.042;6.406;2023-08-17T12:40:09;21.40;30.00
54264;DHT22;40178;53.042;6.406;2023-08-17T12:42:35;21.50;32.10
54264;DHT22;40178;53.042;6.406;2023-08-17T12:45:01;21.60;31.20
54264;DHT22;40178;53.042;6.406;2023-08-17T12:47:27;21.50;26.50
54264;DHT22;40178;53.042;6.406;2023-08-17T12:49:52;21.70;36.80
54264;DHT22;40178;53.042;6.406;2023-08-17T12:52:18;21.50;28.00
54264;DHT22;40178;53.042;6.406;2023-08-17T12:54:44;21.30;30.20
54264;DHT22;40178;53.042;6.406;2023-08-17T12:57:10;21.40;38.60
54264;DHT22;40178;53.042;6.406;2023-08-17T12:59:35;21.40;44.90
54264;DHT22;40178;53.042;6.406;2023-08-17T13:02:01;21.40;44.50
54264;DHT22;40178;53.042;6.406;2023-08-17T13:04:26;21.40;44.30
54264;DHT22;40178;53.042;6.406;2023-08-17T13:06:52;21.40;44.60
54264;DHT22;40178;53.042;6.406;2023-08-17T13:09:19;21.40;41.90
54264;DHT22;40178;53.042;6.406;2023-08-17T13:11:45;21.40;49.60
54264;DHT22;40178;53.042;6.406;2023-08-17T13:14:12;21.30;50.50
54264;DHT22;40178;53.042;6.406;2023-08-17T13:16:38;21.40;49.20
54264;DHT22;40178;53.042;6.406;2023-08-17T13:19:03;21.30;50.50
54264;DHT22;40178;53.042;6.406;2023-08-17T13:21:29;21.30;47.60
54264;DHT22;40178;53.042;6.406;2023-08-17T13:23:54;21.40;54.60
54264;DHT22;40178;53.042;6.406;2023-08-17T13:26:22;21.30;55.00
54264;DHT22;40178;53.042;6.406;2023-08-17T13:28:47;21.20;55.10
54264;DHT22;40178;53.042;6.406;2023-08-17T13:31:13;21.10;55.90
54264;DHT22;40178;53.042;6.406;2023-08-17T13:33:39;21.10;59.20
54264;DHT22;40178;53.042;6.406;2023-08-17T13:36:04;21.20;59.70
54264;DHT22;40178;53.042;6.406;2023-08-17T13:38:30;21.20;60.10
54264;DHT22;40178;53.042;6.406;2023-08-17T13:40:57;21.20;61.40
54264;DHT22;40178;53.042;6.406;2023-08-17T13:43:22;21.20;60.50
54264;DHT22;40178;53.042;6.406;2023-08-17T13:45:48;21.10;60.30
54264;DHT22;40178;53.042;6.406;2023-08-17T13:48:13;21.20;63.40
54264;DHT22;40178;53.042;6.406;2023-08-17T13:50:40;21.20;64.00
54264;DHT22;40178;53.042;6.406;2023-08-17T13:53:05;21.30;64.00
54264;DHT22;40178;53.042;6.406;2023-08-17T13:55:31;21.30;65.30
54264;DHT22;40178;53.042;6.406;2023-08-17T13:57:57;21.30;67.50
54264;DHT22;40178;53.042;6.406;2023-08-17T14:00:24;21.20;59.60
54264;DHT22;40178;53.042;6.406;2023-08-17T14:02:50;21.20;61.50
54264;DHT22;40178;53.042;6.406;2023-08-17T14:05:16;21.20;62.60
54264;DHT22;40178;53.042;6.406;2023-08-17T14:07:42;21.00;59.10
54264;DHT22;40178;53.042;6.406;2023-08-17T14:10:08;21.00;58.60
54264;DHT22;40178;53.042;6.406;2023-08-17T14:12:34;21.00;62.10
54264;DHT22;40178;53.042;6.406;2023-08-17T14:14:59;20.90;59.10
54264;DHT22;40178;53.042;6.406;2023-08-17T14:17:25;20.90;63.00
54264;DHT22;40178;53.042;6.406;2023-08-17T14:19:51;21.00;63.60
54264;DHT22;40178;53.042;6.406;2023-08-17T14:22:16;21.00;62.90
54264;DHT22;40178;53.042;6.406;2023-08-17T14:24:42;20.90;62.00
54264;DHT22;40178;53.042;6.406;2023-08-17T14:27:08;20.90;62.80
54264;DHT22;40178;53.042;6.406;2023-08-17T14:29:33;20.90;62.70
54264;DHT22;40178;53.042;6.406;2023-08-17T14:31:59;20.80;64.90
54264;DHT22;40178;53.042;6.406;2023-08-17T14:34:25;20.80;61.60
54264;DHT22;40178;53.042;6.406;2023-08-17T14:36:51;20.70;66.80
54264;DHT22;40178;53.042;6.406;2023-08-17T14:39:17;20.70;66.90
54264;DHT22;40178;53.042;6.406;2023-08-17T14:41:42;20.60;68.40
54264;DHT22;40178;53.042;6.406;2023-08-17T14:44:08;20.70;71.50
54264;DHT22;40178;53.042;6.406;2023-08-17T14:46:34;20.50;71.90
54264;DHT22;40178;53.042;6.406;2023-08-17T14:49:00;20.50;72.70
54264;DHT22;40178;53.042;6.406;2023-08-17T14:51:25;20.50;73.60
54264;DHT22;40178;53.042;6.406;2023-08-17T14:53:51;20.40;76.80
54264;DHT22;40178;53.042;6.406;2023-08-17T14:56:17;20.40;78.90
54264;DHT22;40178;53.042;6.406;2023-08-17T14:58:42;20.30;78.90
54264;DHT22;40178;53.042;6.406;2023-08-17T15:01:08;20.40;78.00
54264;DHT22;40178;53.042;6.406;2023-08-17T15:03:34;20.50;77.50
54264;DHT22;40178;53.042;6.406;2023-08-17T15:06:00;20.70;78.00
54264;DHT22;40178;53.042;6.406;2023-08-17T15:08:32;20.60;73.00
54264;DHT22;40178;53.042;6.406;2023-08-17T15:10:57;20.70;75.10
54264;DHT22;40178;53.042;6.406;2023-08-17T15:13:27;20.60;75.30
54264;DHT22;40178;53.042;6.406;2023-08-17T15:15:53;20.70;76.90
54264;DHT22;40178;53.042;6.406;2023-08-17T15:18:19;20.50;77.70
54264;DHT22;40178;53.042;6.406;2023-08-17T15:20:44;20.30;81.30
54264;DHT22;40178;53.042;6.406;2023-08-17T15:23:10;20.30;84.00
54264;DHT22;40178;53.042;6.406;2023-08-17T15:25:35;20.20;83.70
54264;DHT22;40178;53.042;6.406;2023-08-17T15:28:01;20.10;85.50
54264;DHT22;40178;53.042;6.406;2023-08-17T15:30:27;20.00;88.10
54264;DHT22;40178;53.042;6.406;2023-08-17T15:32:52;20.00;90.30
54264;DHT22;40178;53.042;6.406;2023-08-17T15:35:18;20.10;88.60